createdAt,value
2022-10-07T00:03:41.943Z,4.22
2022-10-07T00:08:46.989Z,3.97
2022-10-07T00:13:53.125Z,3.78
2022-10-07T00:18:57.982Z,3.90
2022-10-07T00:24:00.620Z,3.90
2022-10-07T00:29:03.929Z,3.50
2022-10-07T00:34:06.266Z,3.95
2022-10-07T00:39:11.966Z,3.78
2022-10-07T00:44:32.399Z,4.28
2022-10-07T00:49:44.845Z,4.30
2022-10-07T00:54:51.595Z,3.78
2022-10-07T00:59:55.955Z,5.07
2022-10-07T01:05:01.970Z,5.30
2022-10-07T01:10:05.725Z,5.00
2022-10-07T01:15:19.686Z,5.30
2022-10-07T01:20:53.631Z,4.75
2022-10-07T01:26:23.579Z,5.85
2022-10-07T01:31:33.599Z,6.10
2022-10-07T01:36:37.934Z,5.57
2022-10-07T01:41:41.826Z,6.03
2022-10-07T01:46:44.421Z,7.50
2022-10-07T01:51:52.411Z,6.47
2022-10-07T01:57:15.129Z,6.70
2022-10-07T02:02:52.255Z,6.90
2022-10-07T02:08:15.408Z,6.57
2022-10-07T02:13:33.999Z,6.88
2022-10-07T02:18:38.406Z,6.53
2022-10-07T02:23:44.499Z,7.00
2022-10-07T02:28:51.620Z,7.07
2022-10-07T02:33:57.546Z,7.70
2022-10-07T02:39:01.783Z,7.20
2022-10-07T02:44:15.103Z,7.57
2022-10-07T02:49:21.293Z,7.70
2022-10-07T02:54:29.614Z,7.32
2022-10-07T02:59:34.070Z,6.90
2022-10-07T03:04:36.300Z,7.68
2022-10-07T03:09:38.803Z,7.20
2022-10-07T03:14:41.411Z,7.30
2022-10-07T03:19:43.894Z,7.32
2022-10-07T03:24:46.068Z,7.28
2022-10-07T03:29:49.407Z,7.53
2022-10-07T03:34:53.172Z,7.22
2022-10-07T03:39:55.420Z,7.65
2022-10-07T03:44:57.824Z,6.53
2022-10-07T03:50:00.026Z,6.45
2022-10-07T03:55:02.496Z,7.22
2022-10-07T04:00:04.948Z,5.43
2022-10-07T04:05:07.503Z,5.13
2022-10-07T04:10:11.436Z,4.20
2022-10-07T04:15:14.261Z,4.53
2022-10-07T04:20:17.827Z,4.28
2022-10-07T04:25:35.570Z,6.65
2022-10-07T04:30:43.989Z,5.45
2022-10-07T04:35:46.380Z,4.70
2022-10-07T04:40:53.427Z,6.55
2022-10-07T04:46:07.974Z,6.65
2022-10-07T04:51:11.004Z,5.90
2022-10-07T04:56:13.375Z,7.10
2022-10-07T05:01:15.663Z,5.95
2022-10-07T05:06:18.933Z,7.70
2022-10-07T05:11:21.347Z,7.05
2022-10-07T05:16:23.729Z,7.22
2022-10-07T05:21:26.006Z,7.22
2022-10-07T05:26:28.395Z,6.60
2022-10-07T05:31:30.823Z,7.20
2022-10-07T05:36:33.059Z,6.68
2022-10-07T05:41:44.999Z,7.00
2022-10-07T05:46:48.029Z,6.28
2022-10-07T05:51:51.882Z,5.93
2022-10-07T05:56:54.383Z,5.57
2022-10-07T06:02:00.743Z,5.45
2022-10-07T06:07:04.511Z,4.95
2022-10-07T06:12:25.236Z,5.22
2022-10-07T06:17:27.568Z,4.90
2022-10-07T06:22:29.817Z,4.95
2022-10-07T06:27:32.025Z,4.57
2022-10-07T06:32:34.238Z,4.78
2022-10-07T06:37:36.496Z,4.40
2022-10-07T06:42:38.865Z,4.88
2022-10-07T06:47:41.291Z,5.45
2022-10-07T06:52:44.256Z,2.70
2022-10-07T06:57:46.700Z,3.08
2022-10-07T07:02:49.113Z,3.50
2022-10-07T07:07:51.466Z,2.80
2022-10-07T07:12:54.650Z,2.70
2022-10-07T07:17:56.947Z,3.17
2022-10-07T07:22:59.316Z,2.83
2022-10-07T07:28:02.438Z,3.03
2022-10-07T07:33:05.744Z,2.72
2022-10-07T07:38:09.109Z,2.63
2022-10-07T07:43:11.354Z,1.98
2022-10-07T07:48:13.998Z,2.90
2022-10-07T07:53:16.326Z,2.38
2022-10-07T07:58:19.156Z,2.53
2022-10-07T08:03:21.549Z,2.15
2022-10-07T08:08:23.956Z,2.13
2022-10-07T08:13:26.280Z,2.10
2022-10-07T08:18:28.567Z,2.20
2022-10-07T08:23:31.323Z,2.33
2022-10-07T08:28:35.528Z,1.92
2022-10-07T08:33:43.336Z,1.48
2022-10-07T08:38:50.035Z,1.75
2022-10-07T08:43:52.819Z,2.20
2022-10-07T08:49:05.123Z,2.53
2022-10-07T08:54:13.055Z,1.67
2022-10-07T08:59:27.761Z,2.08
2022-10-07T09:04:44.867Z,1.45
2022-10-07T09:09:54.330Z,1.65
2022-10-07T09:14:59.657Z,1.55
2022-10-07T09:20:19.989Z,1.85
2022-10-07T09:25:27.554Z,2.38
2022-10-07T09:30:29.958Z,2.80
2022-10-07T09:35:32.299Z,2.25
2022-10-07T09:40:59.078Z,2.38
2022-10-07T09:46:02.190Z,2.50
2022-10-07T09:51:27.362Z,2.80
2022-10-07T09:56:42.042Z,2.83
2022-10-07T10:01:56.119Z,3.20
2022-10-07T10:07:06.651Z,2.85
2022-10-07T10:12:15.401Z,3.00
2022-10-07T10:17:28.791Z,2.70
2022-10-07T10:22:31.246Z,2.67
2022-10-07T10:28:00.141Z,2.25
2022-10-07T10:33:15.212Z,2.72
2022-10-07T10:38:26.007Z,1.85
2022-10-07T10:43:35.630Z,2.53
2022-10-07T10:48:44.775Z,2.22
2022-10-07T10:54:15.085Z,2.10
2022-10-07T10:59:41.409Z,2.05
2022-10-07T11:04:50.538Z,1.90
2022-10-07T11:10:02.030Z,1.80
2022-10-07T11:15:21.949Z,2.08
2022-10-07T11:20:41.107Z,2.22
2022-10-07T11:26:03.362Z,1.65
2022-10-07T11:31:24.118Z,1.48
2022-10-07T11:36:44.335Z,1.20
2022-10-07T11:41:58.607Z,1.98
2022-10-07T11:47:04.594Z,1.58
2022-10-07T11:52:11.455Z,1.67
2022-10-07T11:57:24.595Z,2.22
2022-10-07T12:02:29.932Z,1.23
2022-10-07T12:07:41.208Z,1.42
2022-10-07T12:12:45.003Z,1.33
2022-10-07T12:18:11.002Z,2.38
2022-10-07T12:23:28.790Z,1.30
2022-10-07T12:28:40.539Z,1.50
2022-10-07T12:33:45.816Z,0.90
2022-10-07T12:38:57.216Z,1.80
2022-10-07T12:44:11.206Z,1.23
2022-10-07T12:49:21.108Z,1.27
2022-10-07T12:54:44.244Z,0.93
2022-10-07T13:00:14.255Z,0.80
2022-10-07T13:05:53.770Z,0.70
2022-10-07T13:16:38.981Z,0.70
2022-10-07T13:22:05.717Z,0.60
2022-10-07T13:27:10.995Z,0.60
2022-10-07T13:32:22.512Z,0.50
2022-10-07T13:37:34.312Z,0.70
2022-10-07T13:42:36.764Z,0.85
2022-10-07T13:47:40.102Z,0.70
2022-10-07T13:52:47.403Z,0.73
2022-10-07T13:57:49.984Z,0.57
2022-10-07T14:02:52.842Z,1.00
2022-10-07T14:08:16.754Z,0.60
2022-10-07T14:13:19.289Z,0.90
2022-10-07T14:18:21.699Z,1.27
2022-10-07T14:23:31.610Z,0.90
2022-10-07T14:28:36.061Z,1.00
2022-10-07T14:34:02.022Z,1.10
2022-10-07T14:39:24.556Z,1.10
2022-10-07T14:44:27.055Z,1.05
2022-10-07T14:49:30.377Z,1.00
2022-10-07T14:54:34.666Z,1.35
2022-10-07T14:59:37.683Z,0.90
2022-10-07T15:04:40.612Z,0.95
2022-10-07T15:09:44.542Z,1.10
2022-10-07T15:14:46.906Z,1.15
2022-10-07T15:19:51.689Z,1.25
2022-10-07T15:24:54.205Z,1.92
2022-10-07T15:29:56.508Z,1.00
2022-10-07T15:34:59.354Z,1.58
2022-10-07T15:40:01.625Z,1.00
2022-10-07T15:45:04.086Z,1.67
2022-10-07T15:50:07.876Z,1.58
2022-10-07T15:55:10.262Z,2.08
2022-10-07T16:00:13.099Z,1.63
2022-10-07T16:05:15.397Z,1.40
2022-10-07T16:10:17.929Z,1.40
2022-10-07T16:15:20.592Z,1.23
2022-10-07T16:20:22.764Z,1.63
2022-10-07T16:25:25.002Z,1.38
2022-10-07T16:30:42.215Z,2.00
2022-10-07T16:35:44.853Z,1.88
2022-10-07T16:40:54.848Z,1.60
2022-10-07T16:46:02.917Z,2.00
2022-10-07T16:51:08.584Z,1.80
2022-10-07T16:56:11.279Z,2.70
2022-10-07T17:01:16.769Z,2.08
2022-10-07T17:06:21.727Z,1.60
2022-10-07T17:11:31.117Z,2.20
2022-10-07T17:16:38.185Z,2.38
2022-10-07T17:21:42.966Z,1.90
2022-10-07T17:26:46.601Z,2.65
2022-10-07T17:31:51.038Z,1.77
2022-10-07T17:36:54.468Z,1.83
2022-10-07T17:41:57.924Z,2.10
2022-10-07T17:47:04.008Z,3.25
2022-10-07T17:52:06.229Z,3.15
2022-10-07T17:57:08.640Z,1.92
2022-10-07T18:02:11.363Z,1.95
2022-10-07T18:07:13.830Z,3.85
2022-10-07T18:12:34.887Z,2.40
2022-10-07T18:17:37.379Z,2.00
2022-10-07T18:22:39.623Z,2.25
2022-10-07T18:27:41.844Z,2.30
2022-10-07T18:32:44.083Z,2.70
2022-10-07T18:37:46.693Z,2.90
2022-10-07T18:42:49.125Z,3.00
2022-10-07T18:47:51.629Z,2.28
2022-10-07T18:52:54.707Z,3.58
2022-10-07T18:57:57.109Z,3.03
2022-10-07T19:02:59.468Z,3.00
2022-10-07T19:08:01.907Z,3.13
2022-10-07T19:13:22.402Z,3.03
2022-10-07T19:18:25.981Z,5.75
2022-10-07T19:23:29.558Z,3.80
2022-10-07T19:28:32.282Z,4.93
2022-10-07T19:33:35.013Z,9.43
2022-10-07T19:38:45.126Z,5.70
2022-10-07T19:43:48.758Z,5.35
2022-10-07T19:48:51.544Z,5.53
2022-10-07T19:53:55.191Z,5.20
2022-10-07T19:58:59.656Z,5.68
2022-10-07T20:04:04.829Z,5.85
2022-10-07T20:09:09.422Z,5.45
2022-10-07T20:14:11.934Z,5.43
2022-10-07T20:19:18.966Z,4.72
2022-10-07T20:24:21.494Z,4.72
2022-10-07T20:29:25.510Z,4.53
2022-10-07T20:34:28.231Z,3.90
2022-10-07T20:39:49.820Z,4.60
2022-10-07T20:44:53.651Z,4.85
2022-10-07T20:49:58.200Z,6.50
2022-10-07T20:55:00.653Z,5.38
2022-10-07T21:00:03.110Z,4.88
2022-10-07T21:05:06.994Z,4.55
2022-10-07T21:10:09.260Z,3.90
2022-10-07T21:15:11.870Z,4.00
2022-10-07T21:20:14.280Z,3.38
2022-10-07T21:25:16.688Z,3.33
2022-10-07T21:30:19.243Z,3.10
2022-10-07T21:35:21.434Z,4.05
2022-10-07T21:40:23.923Z,2.67
2022-10-07T21:45:26.091Z,2.38
2022-10-07T21:50:28.326Z,2.47
2022-10-07T21:55:30.843Z,2.33
2022-10-07T22:00:36.556Z,2.20
2022-10-07T22:05:40.302Z,2.60
2022-10-07T22:10:42.732Z,2.40
2022-10-07T22:15:45.646Z,2.70
2022-10-07T22:20:47.935Z,2.53
2022-10-07T22:25:51.812Z,2.13
2022-10-07T22:30:54.062Z,2.03
2022-10-07T22:35:56.324Z,2.30
2022-10-07T22:41:06.699Z,2.47
2022-10-07T22:46:11.140Z,2.45
2022-10-07T22:51:15.387Z,2.47
2022-10-07T22:56:18.997Z,1.95
2022-10-07T23:01:22.440Z,2.58
2022-10-07T23:06:25.123Z,1.92
2022-10-07T23:11:28.748Z,2.47
2022-10-07T23:16:34.431Z,2.35
2022-10-07T23:21:37.588Z,2.25
2022-10-07T23:26:40.075Z,2.55
2022-10-07T23:31:42.509Z,2.10
2022-10-07T23:36:45.021Z,2.38
2022-10-07T23:41:47.427Z,2.10
2022-10-07T23:46:51.013Z,1.88
2022-10-07T23:51:53.756Z,2.00
2022-10-07T23:56:56.110Z,1.92
